sensor_id;sensor_type;location;lat;lon;timestamp;P1;durP1;ratioP1;P2;durP2;ratioP2
13941;SDS011;7043;51.630;7.254;2022-12-05T00:02:11;48.23;;;31.97;;
13941;SDS011;7043;51.630;7.254;2022-12-05T00:04:37;49.67;;;32.53;;
13941;SDS011;7043;51.630;7.254;2022-12-05T00:07:03;47.90;;;32.80;;
13941;SDS011;7043;51.630;7.254;2022-12-05T00:09:29;50.93;;;34.27;;
13941;SDS011;7043;51.630;7.254;2022-12-05T00:11:55;51.23;;;32.83;;
13941;SDS011;7043;51.630;7.254;2022-12-05T00:14:21;54.30;;;34.37;;
13941;SDS011;7043;51.630;7.254;2022-12-05T00:16:47;55.17;;;35.23;;
13941;SDS011;7043;51.630;7.254;2022-12-05T00:19:13;51.73;;;34.37;;
13941;SDS011;7043;51.630;7.254;2022-12-05T00:21:40;51.80;;;34.70;;
13941;SDS011;7043;51.630;7.254;2022-12-05T00:24:07;50.90;;;33.40;;
13941;SDS011;7043;51.630;7.254;2022-12-05T00:26:33;53.90;;;36.17;;
13941;SDS011;7043;51.630;7.254;2022-12-05T00:28:59;52.17;;;35.30;;
13941;SDS011;7043;51.630;7.254;2022-12-05T00:31:26;56.53;;;34.70;;
13941;SDS011;7043;51.630;7.254;2022-12-05T00:33:52;54.07;;;35.63;;
13941;SDS011;7043;51.630;7.254;2022-12-05T00:36:22;51.50;;;35.30;;
13941;SDS011;7043;51.630;7.254;2022-12-05T00:38:49;56.03;;;35.93;;
13941;SDS011;7043;51.630;7.254;2022-12-05T00:41:16;54.97;;;33.90;;
13941;SDS011;7043;51.630;7.254;2022-12-05T00:43:42;58.10;;;36.50;;
13941;SDS011;7043;51.630;7.254;2022-12-05T00:46:12;53.93;;;34.30;;
13941;SDS011;7043;51.630;7.254;2022-12-05T00:48:39;54.67;;;36.07;;
13941;SDS011;7043;51.630;7.254;2022-12-05T00:51:09;56.83;;;35.87;;
13941;SDS011;7043;51.630;7.254;2022-12-05T00:53:36;57.67;;;36.67;;
13941;SDS011;7043;51.630;7.254;2022-12-05T00:56:03;57.50;;;36.50;;
13941;SDS011;7043;51.630;7.254;2022-12-05T00:58:29;54.60;;;36.83;;
13941;SDS011;7043;51.630;7.254;2022-12-05T01:00:55;57.23;;;37.97;;
13941;SDS011;7043;51.630;7.254;2022-12-05T01:03:21;56.30;;;37.73;;
13941;SDS011;7043;51.630;7.254;2022-12-05T01:05:47;55.43;;;34.80;;
13941;SDS011;7043;51.630;7.254;2022-12-05T01:08:13;58.53;;;38.17;;
13941;SDS011;7043;51.630;7.254;2022-12-05T01:10:39;58.07;;;37.40;;
13941;SDS011;7043;51.630;7.254;2022-12-05T01:13:05;60.03;;;37.13;;
13941;SDS011;7043;51.630;7.254;2022-12-05T01:15:34;60.60;;;37.60;;
13941;SDS011;7043;51.630;7.254;2022-12-05T01:18:00;62.03;;;38.90;;
13941;SDS011;7043;51.630;7.254;2022-12-05T01:20:26;57.57;;;37.60;;
13941;SDS011;7043;51.630;7.254;2022-12-05T01:22:52;61.17;;;38.60;;
13941;SDS011;7043;51.630;7.254;2022-12-05T01:25:18;61.73;;;39.50;;
13941;SDS011;7043;51.630;7.254;2022-12-05T01:27:44;67.00;;;40.20;;
13941;SDS011;7043;51.630;7.254;2022-12-05T01:30:10;65.37;;;39.30;;
13941;SDS011;7043;51.630;7.254;2022-12-05T01:32:36;63.67;;;38.83;;
13941;SDS011;7043;51.630;7.254;2022-12-05T01:35:02;64.97;;;38.13;;
13941;SDS011;7043;51.630;7.254;2022-12-05T01:37:28;65.97;;;37.60;;
13941;SDS011;7043;51.630;7.254;2022-12-05T01:39:54;64.50;;;37.77;;
13941;SDS011;7043;51.630;7.254;2022-12-05T01:42:20;67.90;;;40.10;;
13941;SDS011;7043;51.630;7.254;2022-12-05T01:47:14;68.97;;;39.83;;
13941;SDS011;7043;51.630;7.254;2022-12-05T01:49:41;67.50;;;40.50;;
13941;SDS011;7043;51.630;7.254;2022-12-05T01:52:13;71.27;;;40.87;;
13941;SDS011;7043;51.630;7.254;2022-12-05T01:54:40;65.20;;;39.70;;
13941;SDS011;7043;51.630;7.254;2022-12-05T01:57:07;67.13;;;39.73;;
13941;SDS011;7043;51.630;7.254;2022-12-05T01:59:35;65.13;;;38.10;;
13941;SDS011;7043;51.630;7.254;2022-12-05T02:02:03;68.37;;;39.70;;
13941;SDS011;7043;51.630;7.254;2022-12-05T02:04:29;66.97;;;37.97;;
13941;SDS011;7043;51.630;7.254;2022-12-05T02:06:56;73.30;;;43.77;;
13941;SDS011;7043;51.630;7.254;2022-12-05T02:09:21;71.50;;;40.73;;
13941;SDS011;7043;51.630;7.254;2022-12-05T02:11:50;69.47;;;39.03;;
13941;SDS011;7043;51.630;7.254;2022-12-05T02:24:57;67.53;;;39.57;;
13941;SDS011;7043;51.630;7.254;2022-12-05T02:37:53;74.97;;;42.53;;
13941;SDS011;7043;51.630;7.254;2022-12-05T02:40:29;71.00;;;40.50;;
13941;SDS011;7043;51.630;7.254;2022-12-05T02:43:58;71.37;;;39.10;;
13941;SDS011;7043;51.630;7.254;2022-12-05T02:45:56;71.87;;;40.03;;
13941;SDS011;7043;51.630;7.254;2022-12-05T02:48:24;69.00;;;38.80;;
13941;SDS011;7043;51.630;7.254;2022-12-05T02:50:52;68.53;;;40.43;;
13941;SDS011;7043;51.630;7.254;2022-12-05T02:53:19;74.53;;;42.07;;
13941;SDS011;7043;51.630;7.254;2022-12-05T02:55:46;73.63;;;40.93;;
13941;SDS011;7043;51.630;7.254;2022-12-05T02:58:13;74.50;;;41.47;;
13941;SDS011;7043;51.630;7.254;2022-12-05T03:00:42;71.50;;;38.57;;
13941;SDS011;7043;51.630;7.254;2022-12-05T03:03:12;72.30;;;39.47;;
13941;SDS011;7043;51.630;7.254;2022-12-05T03:08:05;69.33;;;40.17;;
13941;SDS011;7043;51.630;7.254;2022-12-05T03:10:33;83.83;;;44.03;;
13941;SDS011;7043;51.630;7.254;2022-12-05T03:13:02;76.57;;;41.30;;
13941;SDS011;7043;51.630;7.254;2022-12-05T03:15:34;72.63;;;41.27;;
13941;SDS011;7043;51.630;7.254;2022-12-05T03:18:05;71.53;;;40.27;;
13941;SDS011;7043;51.630;7.254;2022-12-05T03:20:37;75.53;;;41.20;;
13941;SDS011;7043;51.630;7.254;2022-12-05T03:23:22;74.87;;;40.27;;
13941;SDS011;7043;51.630;7.254;2022-12-05T03:25:53;68.03;;;39.40;;
13941;SDS011;7043;51.630;7.254;2022-12-05T03:28:28;66.20;;;37.97;;
13941;SDS011;7043;51.630;7.254;2022-12-05T03:30:55;66.43;;;38.60;;
13941;SDS011;7043;51.630;7.254;2022-12-05T03:33:24;66.43;;;37.57;;
13941;SDS011;7043;51.630;7.254;2022-12-05T03:43:52;69.10;;;39.03;;
13941;SDS011;7043;51.630;7.254;2022-12-05T03:48:56;68.93;;;39.70;;
13941;SDS011;7043;51.630;7.254;2022-12-05T03:51:25;72.83;;;39.20;;
13941;SDS011;7043;51.630;7.254;2022-12-05T03:53:57;71.90;;;38.93;;
13941;SDS011;7043;51.630;7.254;2022-12-05T03:56:26;70.20;;;38.40;;
13941;SDS011;7043;51.630;7.254;2022-12-05T03:58:54;70.07;;;39.00;;
13941;SDS011;7043;51.630;7.254;2022-12-05T04:01:21;71.40;;;39.13;;
13941;SDS011;7043;51.630;7.254;2022-12-05T04:03:54;69.03;;;38.13;;
13941;SDS011;7043;51.630;7.254;2022-12-05T04:06:22;63.27;;;38.77;;
13941;SDS011;7043;51.630;7.254;2022-12-05T04:08:56;67.10;;;37.33;;
13941;SDS011;7043;51.630;7.254;2022-12-05T04:11:24;65.03;;;36.93;;
13941;SDS011;7043;51.630;7.254;2022-12-05T04:13:53;66.07;;;37.13;;
13941;SDS011;7043;51.630;7.254;2022-12-05T04:16:23;69.27;;;37.50;;
13941;SDS011;7043;51.630;7.254;2022-12-05T04:19:21;68.53;;;38.63;;
13941;SDS011;7043;51.630;7.254;2022-12-05T04:21:49;64.73;;;37.83;;
13941;SDS011;7043;51.630;7.254;2022-12-05T04:24:17;68.00;;;39.13;;
13941;SDS011;7043;51.630;7.254;2022-12-05T04:27:06;69.57;;;38.57;;
13941;SDS011;7043;51.630;7.254;2022-12-05T04:29:36;69.43;;;36.97;;
13941;SDS011;7043;51.630;7.254;2022-12-05T04:32:03;68.87;;;38.50;;
13941;SDS011;7043;51.630;7.254;2022-12-05T04:34:31;64.77;;;38.37;;
13941;SDS011;7043;51.630;7.254;2022-12-05T04:37:01;67.37;;;37.13;;
13941;SDS011;7043;51.630;7.254;2022-12-05T04:42:23;65.63;;;37.87;;
13941;SDS011;7043;51.630;7.254;2022-12-05T04:45:04;67.27;;;39.20;;
13941;SDS011;7043;51.630;7.254;2022-12-05T04:47:35;64.83;;;38.60;;
13941;SDS011;7043;51.630;7.254;2022-12-05T04:50:02;67.23;;;39.43;;
13941;SDS011;7043;51.630;7.254;2022-12-05T04:52:28;68.27;;;38.73;;
13941;SDS011;7043;51.630;7.254;2022-12-05T04:57:34;65.10;;;38.17;;
13941;SDS011;7043;51.630;7.254;2022-12-05T05:00:02;64.80;;;37.20;;
13941;SDS011;7043;51.630;7.254;2022-12-05T05:02:39;61.10;;;37.53;;
13941;SDS011;7043;51.630;7.254;2022-12-05T05:05:08;63.67;;;37.40;;
13941;SDS011;7043;51.630;7.254;2022-12-05T05:07:41;65.30;;;37.73;;
13941;SDS011;7043;51.630;7.254;2022-12-05T05:10:08;70.37;;;39.60;;
13941;SDS011;7043;51.630;7.254;2022-12-05T05:12:36;67.20;;;37.73;;
13941;SDS011;7043;51.630;7.254;2022-12-05T05:15:02;62.33;;;37.80;;
13941;SDS011;7043;51.630;7.254;2022-12-05T05:17:28;65.40;;;37.73;;
13941;SDS011;7043;51.630;7.254;2022-12-05T05:19:54;65.70;;;37.77;;
13941;SDS011;7043;51.630;7.254;2022-12-05T05:22:40;65.37;;;37.13;;
13941;SDS011;7043;51.630;7.254;2022-12-05T05:25:06;58.77;;;34.27;;
13941;SDS011;7043;51.630;7.254;2022-12-05T05:27:32;66.90;;;36.53;;
13941;SDS011;7043;51.630;7.254;2022-12-05T05:29:58;61.40;;;38.07;;
13941;SDS011;7043;51.630;7.254;2022-12-05T05:32:24;62.27;;;37.70;;
13941;SDS011;7043;51.630;7.254;2022-12-05T05:34:49;63.13;;;37.73;;
13941;SDS011;7043;51.630;7.254;2022-12-05T05:37:15;63.97;;;38.57;;
13941;SDS011;7043;51.630;7.254;2022-12-05T05:39:42;66.73;;;38.43;;
13941;SDS011;7043;51.630;7.254;2022-12-05T05:42:08;63.60;;;36.40;;
13941;SDS011;7043;51.630;7.254;2022-12-05T05:44:35;61.97;;;35.70;;
13941;SDS011;7043;51.630;7.254;2022-12-05T05:47:01;55.07;;;35.47;;
13941;SDS011;7043;51.630;7.254;2022-12-05T05:49:27;58.57;;;36.60;;
13941;SDS011;7043;51.630;7.254;2022-12-05T05:51:53;53.63;;;31.73;;
13941;SDS011;7043;51.630;7.254;2022-12-05T05:54:19;53.70;;;32.97;;
13941;SDS011;7043;51.630;7.254;2022-12-05T05:56:45;53.40;;;32.27;;
13941;SDS011;7043;51.630;7.254;2022-12-05T05:59:11;54.47;;;33.40;;
13941;SDS011;7043;51.630;7.254;2022-12-05T06:01:37;56.30;;;33.83;;
13941;SDS011;7043;51.630;7.254;2022-12-05T06:04:03;50.77;;;32.77;;
13941;SDS011;7043;51.630;7.254;2022-12-05T06:06:29;51.43;;;32.23;;
13941;SDS011;7043;51.630;7.254;2022-12-05T06:08:55;53.17;;;33.10;;
13941;SDS011;7043;51.630;7.254;2022-12-05T06:11:22;49.83;;;31.37;;
13941;SDS011;7043;51.630;7.254;2022-12-05T06:13:49;45.40;;;30.83;;
13941;SDS011;7043;51.630;7.254;2022-12-05T06:16:16;51.97;;;31.47;;
13941;SDS011;7043;51.630;7.254;2022-12-05T06:18:42;49.67;;;30.83;;
13941;SDS011;7043;51.630;7.254;2022-12-05T06:21:08;46.00;;;30.23;;
13941;SDS011;7043;51.630;7.254;2022-12-05T06:23:35;45.50;;;30.73;;
13941;SDS011;7043;51.630;7.254;2022-12-05T06:26:02;49.07;;;30.20;;
13941;SDS011;7043;51.630;7.254;2022-12-05T06:28:28;46.70;;;28.87;;
13941;SDS011;7043;51.630;7.254;2022-12-05T06:30:54;45.67;;;30.07;;
13941;SDS011;7043;51.630;7.254;2022-12-05T06:33:20;44.87;;;30.43;;
13941;SDS011;7043;51.630;7.254;2022-12-05T06:35:46;49.00;;;30.83;;
13941;SDS011;7043;51.630;7.254;2022-12-05T06:38:12;44.87;;;30.17;;
13941;SDS011;7043;51.630;7.254;2022-12-05T06:40:42;40.80;;;28.77;;
13941;SDS011;7043;51.630;7.254;2022-12-05T06:43:09;46.73;;;30.27;;
13941;SDS011;7043;51.630;7.254;2022-12-05T06:45:38;42.90;;;28.00;;
13941;SDS011;7043;51.630;7.254;2022-12-05T06:48:04;45.07;;;29.70;;
13941;SDS011;7043;51.630;7.254;2022-12-05T06:50:30;44.70;;;29.37;;
13941;SDS011;7043;51.630;7.254;2022-12-05T06:52:56;45.80;;;29.57;;
13941;SDS011;7043;51.630;7.254;2022-12-05T06:55:22;41.97;;;28.43;;
13941;SDS011;7043;51.630;7.254;2022-12-05T06:57:48;44.33;;;29.93;;
13941;SDS011;7043;51.630;7.254;2022-12-05T07:00:14;47.80;;;28.67;;
13941;SDS011;7043;51.630;7.254;2022-12-05T07:02:59;47.53;;;28.90;;
13941;SDS011;7043;51.630;7.254;2022-12-05T07:05:25;76.63;;;43.90;;
13941;SDS011;7043;51.630;7.254;2022-12-05T07:07:51;95.07;;;59.33;;
13941;SDS011;7043;51.630;7.254;2022-12-05T07:10:17;88.23;;;58.33;;
13941;SDS011;7043;51.630;7.254;2022-12-05T07:12:43;59.23;;;38.47;;
13941;SDS011;7043;51.630;7.254;2022-12-05T07:15:09;58.83;;;42.07;;
13941;SDS011;7043;51.630;7.254;2022-12-05T07:17:36;50.80;;;34.43;;
13941;SDS011;7043;51.630;7.254;2022-12-05T07:20:03;118.57;;;88.87;;
13941;SDS011;7043;51.630;7.254;2022-12-05T07:22:29;51.83;;;34.17;;
13941;SDS011;7043;51.630;7.254;2022-12-05T07:24:55;62.87;;;48.67;;
13941;SDS011;7043;51.630;7.254;2022-12-05T07:27:21;101.97;;;91.27;;
13941;SDS011;7043;51.630;7.254;2022-12-05T07:29:47;78.90;;;60.97;;
13941;SDS011;7043;51.630;7.254;2022-12-05T07:32:13;52.83;;;36.90;;
13941;SDS011;7043;51.630;7.254;2022-12-05T07:34:39;51.33;;;36.30;;
13941;SDS011;7043;51.630;7.254;2022-12-05T07:37:06;47.10;;;32.17;;
13941;SDS011;7043;51.630;7.254;2022-12-05T07:39:32;44.20;;;30.10;;
13941;SDS011;7043;51.630;7.254;2022-12-05T07:41:58;42.30;;;28.63;;
13941;SDS011;7043;51.630;7.254;2022-12-05T07:44:24;42.53;;;29.63;;
13941;SDS011;7043;51.630;7.254;2022-12-05T07:46:50;40.27;;;28.40;;
13941;SDS011;7043;51.630;7.254;2022-12-05T07:49:16;41.90;;;28.30;;
13941;SDS011;7043;51.630;7.254;2022-12-05T07:51:42;43.77;;;28.30;;
13941;SDS011;7043;51.630;7.254;2022-12-05T07:54:08;40.70;;;28.23;;
13941;SDS011;7043;51.630;7.254;2022-12-05T07:56:34;44.13;;;29.03;;
13941;SDS011;7043;51.630;7.254;2022-12-05T07:59:00;36.70;;;27.37;;
13941;SDS011;7043;51.630;7.254;2022-12-05T08:01:27;49.73;;;39.13;;
13941;SDS011;7043;51.630;7.254;2022-12-05T08:03:54;41.53;;;29.73;;
13941;SDS011;7043;51.630;7.254;2022-12-05T08:06:22;48.07;;;34.60;;
13941;SDS011;7043;51.630;7.254;2022-12-05T08:08:48;45.50;;;35.00;;
13941;SDS011;7043;51.630;7.254;2022-12-05T08:11:16;43.73;;;31.20;;
13941;SDS011;7043;51.630;7.254;2022-12-05T08:13:42;42.00;;;29.70;;
13941;SDS011;7043;51.630;7.254;2022-12-05T08:16:10;46.53;;;31.30;;
13941;SDS011;7043;51.630;7.254;2022-12-05T08:18:36;48.00;;;32.27;;
13941;SDS011;7043;51.630;7.254;2022-12-05T08:21:03;50.67;;;36.57;;
13941;SDS011;7043;51.630;7.254;2022-12-05T08:23:30;61.60;;;42.37;;
13941;SDS011;7043;51.630;7.254;2022-12-05T08:26:00;61.63;;;42.33;;
13941;SDS011;7043;51.630;7.254;2022-12-05T08:28:26;54.80;;;39.53;;
13941;SDS011;7043;51.630;7.254;2022-12-05T08:30:52;52.03;;;38.40;;
13941;SDS011;7043;51.630;7.254;2022-12-05T08:33:18;45.60;;;31.23;;
13941;SDS011;7043;51.630;7.254;2022-12-05T08:35:44;36.73;;;28.57;;
13941;SDS011;7043;51.630;7.254;2022-12-05T08:38:10;38.20;;;28.80;;
13941;SDS011;7043;51.630;7.254;2022-12-05T08:40:36;40.23;;;31.10;;
13941;SDS011;7043;51.630;7.254;2022-12-05T08:43:02;38.40;;;27.37;;
13941;SDS011;7043;51.630;7.254;2022-12-05T08:45:28;38.13;;;29.90;;
13941;SDS011;7043;51.630;7.254;2022-12-05T08:47:54;34.20;;;25.93;;
13941;SDS011;7043;51.630;7.254;2022-12-05T08:50:20;33.13;;;24.63;;
13941;SDS011;7043;51.630;7.254;2022-12-05T08:52:46;33.43;;;25.07;;
13941;SDS011;7043;51.630;7.254;2022-12-05T08:55:12;34.47;;;25.93;;
13941;SDS011;7043;51.630;7.254;2022-12-05T08:57:38;32.30;;;25.20;;
13941;SDS011;7043;51.630;7.254;2022-12-05T09:00:04;31.60;;;23.57;;
13941;SDS011;7043;51.630;7.254;2022-12-05T09:02:30;32.53;;;24.27;;
13941;SDS011;7043;51.630;7.254;2022-12-05T09:04:57;31.63;;;24.37;;
13941;SDS011;7043;51.630;7.254;2022-12-05T09:07:23;30.43;;;23.60;;
13941;SDS011;7043;51.630;7.254;2022-12-05T09:09:49;31.60;;;23.17;;
13941;SDS011;7043;51.630;7.254;2022-12-05T09:12:16;32.03;;;23.43;;
13941;SDS011;7043;51.630;7.254;2022-12-05T09:14:42;33.43;;;24.73;;
13941;SDS011;7043;51.630;7.254;2022-12-05T09:17:08;27.70;;;22.90;;
13941;SDS011;7043;51.630;7.254;2022-12-05T09:19:34;33.47;;;24.13;;
13941;SDS011;7043;51.630;7.254;2022-12-05T09:22:00;30.20;;;23.77;;
13941;SDS011;7043;51.630;7.254;2022-12-05T09:24:26;33.37;;;27.10;;
13941;SDS011;7043;51.630;7.254;2022-12-05T09:26:52;32.03;;;24.63;;
13941;SDS011;7043;51.630;7.254;2022-12-05T09:29:18;28.73;;;23.93;;
13941;SDS011;7043;51.630;7.254;2022-12-05T09:31:45;28.80;;;22.90;;
13941;SDS011;7043;51.630;7.254;2022-12-05T09:34:11;28.77;;;23.47;;
13941;SDS011;7043;51.630;7.254;2022-12-05T09:36:38;31.80;;;25.73;;
13941;SDS011;7043;51.630;7.254;2022-12-05T09:39:05;26.30;;;22.50;;
13941;SDS011;7043;51.630;7.254;2022-12-05T09:44:40;28.87;;;21.87;;
13941;SDS011;7043;51.630;7.254;2022-12-05T09:49:49;25.23;;;22.50;;
13941;SDS011;7043;51.630;7.254;2022-12-05T09:52:32;28.90;;;24.90;;
13941;SDS011;7043;51.630;7.254;2022-12-05T09:55:02;31.77;;;27.30;;
13941;SDS011;7043;51.630;7.254;2022-12-05T09:57:32;30.07;;;23.77;;
13941;SDS011;7043;51.630;7.254;2022-12-05T09:59:59;27.43;;;23.13;;
13941;SDS011;7043;51.630;7.254;2022-12-05T10:02:28;26.83;;;22.17;;
13941;SDS011;7043;51.630;7.254;2022-12-05T10:04:58;26.60;;;22.47;;
13941;SDS011;7043;51.630;7.254;2022-12-05T10:07:43;25.43;;;21.10;;
13941;SDS011;7043;51.630;7.254;2022-12-05T10:10:25;25.30;;;21.13;;
13941;SDS011;7043;51.630;7.254;2022-12-05T10:13:06;26.53;;;21.03;;
13941;SDS011;7043;51.630;7.254;2022-12-05T10:15:35;25.57;;;22.37;;
13941;SDS011;7043;51.630;7.254;2022-12-05T10:18:07;27.90;;;22.83;;
13941;SDS011;7043;51.630;7.254;2022-12-05T10:20:35;23.77;;;20.57;;
13941;SDS011;7043;51.630;7.254;2022-12-05T10:23:23;23.73;;;20.40;;
13941;SDS011;7043;51.630;7.254;2022-12-05T10:25:51;24.80;;;20.53;;
13941;SDS011;7043;51.630;7.254;2022-12-05T10:28:30;238.17;;;128.53;;
13941;SDS011;7043;51.630;7.254;2022-12-05T10:30:57;33.60;;;25.53;;
13941;SDS011;7043;51.630;7.254;2022-12-05T10:33:25;27.77;;;22.53;;
13941;SDS011;7043;51.630;7.254;2022-12-05T10:35:55;28.20;;;22.80;;
13941;SDS011;7043;51.630;7.254;2022-12-05T10:38:26;27.83;;;23.27;;
13941;SDS011;7043;51.630;7.254;2022-12-05T10:40:54;25.57;;;20.60;;
13941;SDS011;7043;51.630;7.254;2022-12-05T10:43:26;22.20;;;19.47;;
13941;SDS011;7043;51.630;7.254;2022-12-05T10:45:52;24.10;;;19.40;;
13941;SDS011;7043;51.630;7.254;2022-12-05T10:48:19;22.57;;;18.37;;
13941;SDS011;7043;51.630;7.254;2022-12-05T10:50:46;22.60;;;19.60;;
13941;SDS011;7043;51.630;7.254;2022-12-05T10:53:14;23.53;;;20.60;;
13941;SDS011;7043;51.630;7.254;2022-12-05T10:55:45;41.23;;;32.13;;
13941;SDS011;7043;51.630;7.254;2022-12-05T10:58:15;32.20;;;26.07;;
13941;SDS011;7043;51.630;7.254;2022-12-05T11:00:43;25.93;;;21.80;;
13941;SDS011;7043;51.630;7.254;2022-12-05T11:05:52;23.30;;;19.67;;
13941;SDS011;7043;51.630;7.254;2022-12-05T11:08:29;21.60;;;18.77;;
13941;SDS011;7043;51.630;7.254;2022-12-05T11:11:05;23.30;;;18.87;;
13941;SDS011;7043;51.630;7.254;2022-12-05T11:13:32;23.77;;;18.53;;
13941;SDS011;7043;51.630;7.254;2022-12-05T11:15:58;24.40;;;19.43;;
13941;SDS011;7043;51.630;7.254;2022-12-05T11:18:28;23.20;;;18.87;;
13941;SDS011;7043;51.630;7.254;2022-12-05T11:20:56;23.77;;;19.73;;
13941;SDS011;7043;51.630;7.254;2022-12-05T11:23:32;24.30;;;21.70;;
13941;SDS011;7043;51.630;7.254;2022-12-05T11:25:59;22.07;;;19.50;;
13941;SDS011;7043;51.630;7.254;2022-12-05T11:30:58;24.43;;;20.37;;
13941;SDS011;7043;51.630;7.254;2022-12-05T11:33:28;22.40;;;18.50;;
13941;SDS011;7043;51.630;7.254;2022-12-05T11:35:55;22.73;;;19.57;;
13941;SDS011;7043;51.630;7.254;2022-12-05T11:38:25;27.20;;;21.43;;
13941;SDS011;7043;51.630;7.254;2022-12-05T11:40:53;32.00;;;23.77;;
13941;SDS011;7043;51.630;7.254;2022-12-05T12:04:02;21.77;;;19.47;;
13941;SDS011;7043;51.630;7.254;2022-12-05T12:06:52;21.70;;;19.00;;
13941;SDS011;7043;51.630;7.254;2022-12-05T12:09:41;22.77;;;19.87;;
13941;SDS011;7043;51.630;7.254;2022-12-05T12:14:44;22.23;;;19.83;;
13941;SDS011;7043;51.630;7.254;2022-12-05T12:17:24;20.20;;;17.93;;
13941;SDS011;7043;51.630;7.254;2022-12-05T12:30:05;19.03;;;17.03;;
13941;SDS011;7043;51.630;7.254;2022-12-05T12:32:42;19.47;;;17.47;;
13941;SDS011;7043;51.630;7.254;2022-12-05T12:45:48;20.83;;;18.27;;
13941;SDS011;7043;51.630;7.254;2022-12-05T12:50:41;21.97;;;19.63;;
13941;SDS011;7043;51.630;7.254;2022-12-05T13:03:37;23.33;;;20.77;;
13941;SDS011;7043;51.630;7.254;2022-12-05T13:06:06;23.33;;;20.83;;
13941;SDS011;7043;51.630;7.254;2022-12-05T13:11:18;23.03;;;20.67;;
13941;SDS011;7043;51.630;7.254;2022-12-05T13:13:46;26.87;;;22.37;;
13941;SDS011;7043;51.630;7.254;2022-12-05T13:16:15;26.40;;;23.03;;
13941;SDS011;7043;51.630;7.254;2022-12-05T13:18:46;23.40;;;20.90;;
13941;SDS011;7043;51.630;7.254;2022-12-05T13:21:12;28.50;;;25.43;;
13941;SDS011;7043;51.630;7.254;2022-12-05T13:23:46;25.33;;;22.40;;
13941;SDS011;7043;51.630;7.254;2022-12-05T13:26:13;28.47;;;24.23;;
13941;SDS011;7043;51.630;7.254;2022-12-05T13:31:11;23.10;;;20.70;;
13941;SDS011;7043;51.630;7.254;2022-12-05T13:36:19;27.57;;;24.87;;
13941;SDS011;7043;51.630;7.254;2022-12-05T13:39:05;19.03;;;17.03;;
13941;SDS011;7043;51.630;7.254;2022-12-05T13:41:52;23.13;;;20.83;;
13941;SDS011;7043;51.630;7.254;2022-12-05T13:44:42;20.43;;;18.33;;
13941;SDS011;7043;51.630;7.254;2022-12-05T13:50:56;20.63;;;18.53;;
13941;SDS011;7043;51.630;7.254;2022-12-05T13:52:51;23.00;;;20.60;;
13941;SDS011;7043;51.630;7.254;2022-12-05T13:57:48;28.77;;;25.97;;
13941;SDS011;7043;51.630;7.254;2022-12-05T14:10:11;25.57;;;23.17;;
13941;SDS011;7043;51.630;7.254;2022-12-05T14:12:48;21.47;;;19.37;;
13941;SDS011;7043;51.630;7.254;2022-12-05T14:15:24;23.20;;;20.90;;
13941;SDS011;7043;51.630;7.254;2022-12-05T14:18:12;22.00;;;19.83;;
13941;SDS011;7043;51.630;7.254;2022-12-05T14:20:41;18.13;;;16.33;;
13941;SDS011;7043;51.630;7.254;2022-12-05T14:28:49;19.47;;;17.57;;
13941;SDS011;7043;51.630;7.254;2022-12-05T14:34:15;18.33;;;16.53;;
13941;SDS011;7043;51.630;7.254;2022-12-05T14:36:52;18.50;;;16.67;;
13941;SDS011;7043;51.630;7.254;2022-12-05T14:41:58;20.77;;;17.90;;
13941;SDS011;7043;51.630;7.254;2022-12-05T14:44:25;18.37;;;16.43;;
13941;SDS011;7043;51.630;7.254;2022-12-05T14:46:56;19.77;;;17.67;;
13941;SDS011;7043;51.630;7.254;2022-12-05T14:52:17;24.73;;;20.77;;
13941;SDS011;7043;51.630;7.254;2022-12-05T14:54:44;17.23;;;15.43;;
13941;SDS011;7043;51.630;7.254;2022-12-05T14:57:12;17.57;;;15.67;;
13941;SDS011;7043;51.630;7.254;2022-12-05T14:59:52;16.50;;;14.90;;
13941;SDS011;7043;51.630;7.254;2022-12-05T15:02:30;17.23;;;15.53;;
13941;SDS011;7043;51.630;7.254;2022-12-05T15:07:42;36.37;;;32.67;;
13941;SDS011;7043;51.630;7.254;2022-12-05T15:12:46;32.10;;;27.70;;
13941;SDS011;7043;51.630;7.254;2022-12-05T15:15:18;29.47;;;24.57;;
13941;SDS011;7043;51.630;7.254;2022-12-05T15:17:50;23.30;;;20.00;;
13941;SDS011;7043;51.630;7.254;2022-12-05T15:22:43;18.60;;;16.50;;
13941;SDS011;7043;51.630;7.254;2022-12-05T15:25:13;17.57;;;15.77;;
13941;SDS011;7043;51.630;7.254;2022-12-05T15:27:39;17.00;;;15.20;;
13941;SDS011;7043;51.630;7.254;2022-12-05T15:30:13;15.87;;;14.37;;
13941;SDS011;7043;51.630;7.254;2022-12-05T15:32:39;17.83;;;16.03;;
13941;SDS011;7043;51.630;7.254;2022-12-05T15:35:08;17.20;;;15.50;;
13941;SDS011;7043;51.630;7.254;2022-12-05T15:37:44;16.37;;;14.77;;
13941;SDS011;7043;51.630;7.254;2022-12-05T15:40:13;16.80;;;15.20;;
13941;SDS011;7043;51.630;7.254;2022-12-05T15:42:45;15.90;;;14.30;;
13941;SDS011;7043;51.630;7.254;2022-12-05T15:47:38;19.57;;;17.57;;
13941;SDS011;7043;51.630;7.254;2022-12-05T15:50:05;17.20;;;15.50;;
13941;SDS011;7043;51.630;7.254;2022-12-05T15:52:42;17.50;;;15.70;;
13941;SDS011;7043;51.630;7.254;2022-12-05T15:55:14;17.80;;;15.97;;
13941;SDS011;7043;51.630;7.254;2022-12-05T15:57:52;16.07;;;14.50;;
13941;SDS011;7043;51.630;7.254;2022-12-05T16:00:20;16.97;;;15.27;;
13941;SDS011;7043;51.630;7.254;2022-12-05T16:07:53;13.27;;;11.97;;
13941;SDS011;7043;51.630;7.254;2022-12-05T16:10:20;13.33;;;12.13;;
13941;SDS011;7043;51.630;7.254;2022-12-05T16:12:47;14.73;;;13.33;;
13941;SDS011;7043;51.630;7.254;2022-12-05T16:15:16;15.60;;;14.00;;
13941;SDS011;7043;51.630;7.254;2022-12-05T16:17:46;16.37;;;14.67;;
13941;SDS011;7043;51.630;7.254;2022-12-05T16:22:43;18.43;;;16.53;;
13941;SDS011;7043;51.630;7.254;2022-12-05T16:25:11;17.60;;;15.93;;
13941;SDS011;7043;51.630;7.254;2022-12-05T16:27:39;19.13;;;17.23;;
13941;SDS011;7043;51.630;7.254;2022-12-05T16:30:16;19.93;;;17.83;;
13941;SDS011;7043;51.630;7.254;2022-12-05T16:32:43;19.07;;;17.07;;
13941;SDS011;7043;51.630;7.254;2022-12-05T16:38:02;20.87;;;18.77;;
13941;SDS011;7043;51.630;7.254;2022-12-05T16:40:28;23.10;;;20.70;;
13941;SDS011;7043;51.630;7.254;2022-12-05T16:43:04;23.70;;;21.20;;
13941;SDS011;7043;51.630;7.254;2022-12-05T16:45:41;25.13;;;21.40;;
13941;SDS011;7043;51.630;7.254;2022-12-05T16:50:40;24.03;;;21.47;;
13941;SDS011;7043;51.630;7.254;2022-12-05T16:55:32;20.97;;;18.77;;
13941;SDS011;7043;51.630;7.254;2022-12-05T16:58:01;21.03;;;18.83;;
13941;SDS011;7043;51.630;7.254;2022-12-05T17:00:27;20.10;;;18.00;;
13941;SDS011;7043;51.630;7.254;2022-12-05T17:02:55;20.57;;;18.07;;
13941;SDS011;7043;51.630;7.254;2022-12-05T17:05:22;21.03;;;18.93;;
13941;SDS011;7043;51.630;7.254;2022-12-05T17:07:48;21.67;;;19.13;;
13941;SDS011;7043;51.630;7.254;2022-12-05T17:10:15;22.43;;;20.03;;
13941;SDS011;7043;51.630;7.254;2022-12-05T17:12:41;21.77;;;19.50;;
13941;SDS011;7043;51.630;7.254;2022-12-05T17:15:17;23.30;;;20.50;;
13941;SDS011;7043;51.630;7.254;2022-12-05T17:17:44;23.67;;;21.23;;
13941;SDS011;7043;51.630;7.254;2022-12-05T17:20:10;23.43;;;20.93;;
13941;SDS011;7043;51.630;7.254;2022-12-05T17:22:39;22.40;;;19.63;;
13941;SDS011;7043;51.630;7.254;2022-12-05T17:25:21;20.53;;;18.37;;
13941;SDS011;7043;51.630;7.254;2022-12-05T17:27:47;21.37;;;19.20;;
13941;SDS011;7043;51.630;7.254;2022-12-05T17:30:13;20.20;;;17.87;;
13941;SDS011;7043;51.630;7.254;2022-12-05T17:32:40;18.90;;;16.97;;
13941;SDS011;7043;51.630;7.254;2022-12-05T17:35:11;21.43;;;19.13;;
13941;SDS011;7043;51.630;7.254;2022-12-05T17:37:37;21.40;;;18.83;;